Flight Track Log - Related Links

Times and Time Zones

All times are in EST time to prevent confusion due to time zone crossing. See the N515JM flight status page for this flight to view local times or setup timezone preferences in your user account.

Time Position Orientation Groundspeed Altitude Reporting Facility
EST Latitude Longitude Course Direction KTS MPH feet Rate Location/Type
Sun 03:41:11 PM 25.9114 -80.2614 84° East 169 194 400  Level Miami Center
Sun 03:42:25 PM 25.9194 -80.1764 84° East 265 305 2,000 1,393 Climbing Miami Center
Sun 03:43:03 PM 25.9311 -80.1281 75° East 248 285 3,000 2,327 Climbing Miami Center
Sun 03:44:03 PM 25.9431 -80.0522 80° East 248 285 5,800 2,800 Climbing Miami Center
Sun 03:45:03 PM 25.9533 -79.9669 82° East 264 304 8,600 2,750 Climbing Miami Center
Sun 03:46:03 PM 25.9636 -79.8747 83° East 283 326 11,300 2,500 Climbing Miami Center
Sun 03:47:03 PM 25.9989 -79.7786 68° East 308 354 13,600 2,300 Climbing Miami Center
Sun 03:48:03 PM 26.0572 -79.6897 54° Northeast 327 376 15,900 2,100 Climbing Miami Center
Sun 03:49:03 PM 26.1275 -79.6106 45° Northeast 345 397 17,800 1,800 Climbing Miami Center
Sun 03:50:03 PM 26.2247 -79.5550 27° Northeast 371 427 19,500 1,750 Climbing Miami Center
Sun 03:51:03 PM 26.3156 -79.4919 32° Northeast 381 438 21,300 1,600 Climbing Miami Center
Sun 03:52:03 PM 26.4022 -79.4383 29° Northeast 391 450 22,700 1,600 Climbing Miami Center
Sun 03:53:03 PM 26.5122 -79.3686 30° Northeast 403 464 24,500 1,650 Climbing Miami Center
Sun 03:54:03 PM 26.6008 -79.3125 30° Northeast 408 470 26,000 1,500 Climbing Miami Center
Sun 03:55:03 PM 26.7106 -79.2428 30° Northeast 408 470 27,500 1,450 Climbing Miami Center
Sun 03:56:03 PM 26.8097 -79.1794 30° Northeast 408 470 28,900 1,250 Climbing Miami Center
Sun 03:57:03 PM 26.9111 -79.1142 30° Northeast 408 470 30,000 1,050 Climbing Miami Center
Sun 03:58:03 PM 27.0103 -79.0506 30° Northeast 408 470 31,000 1,050 Climbing Miami Center
Sun 03:59:03 PM 27.1136 -78.9850 29° Northeast 416 479 32,100 1,050 Climbing Miami Center
Sun 04:00:03 PM 27.2167 -78.9214 29° Northeast 416 479 33,100 1,000 Climbing Miami Center
Sun 04:01:03 PM 27.3094 -78.8600 30° Northeast 422 486 34,100 950 Climbing Miami Center
Sun 04:02:03 PM 27.4125 -78.8033 26° Northeast 417 480 35,000 1,000 Climbing Miami Center
Sun 04:03:03 PM 27.5383 -78.7772 10° North 410 472 36,100 1,000 Climbing Miami Center
Sun 04:04:03 PM 27.6472 -78.7556 10° North 404 465 37,000 450 Climbing Miami Center
Sun 04:05:03 PM 27.7581 -78.7386 North 399 459 37,000  Level Miami Center
Sun 04:06:03 PM 27.8647 -78.7192 North 419 482 37,000  Level Miami Center
Sun 04:07:03 PM 27.9925 -78.6978 North 419 482 37,000  Level Miami Center
Sun 04:08:03 PM 28.1117 -78.6739 10° North 419 482 37,000  Level Miami Center
Sun 04:09:03 PM 28.2331 -78.6547 North 430 495 37,000  Level Miami Center
Sun 04:10:03 PM 28.3481 -78.6328 10° North 425 489 37,000  Level Miami Center
Sun 04:11:03 PM 28.4694 -78.6111 North 425 489 37,000  Level Miami Center
Sun 04:12:03 PM 28.5886 -78.5894 North 430 495 37,000  Level Miami Center
Sun 04:13:03 PM 28.7078 -78.5700 North 425 489 37,000  Level Miami Center
Sun 04:14:03 PM 28.8311 -78.5481 North 435 501 37,000  Level Miami Center
Sun 04:15:03 PM 28.9483 -78.5239 10° North 430 495 37,000  Level Miami Center
Sun 04:16:03 PM 29.0697 -78.5067 North 430 495 37,000  Level Miami Center
Sun 04:17:03 PM 29.1825 -78.4822 11° North 430 495 37,000  Level Miami Center
Sun 04:18:03 PM 29.3039 -78.4625 North 425 489 37,000  Level Miami Center
Sun 04:19:03 PM 29.4228 -78.4428 North 431 496 37,000  Level Miami Center
Sun 04:20:03 PM 29.5400 -78.4206 North 424 488 37,000  Level Miami Center
Sun 04:21:03 PM 29.6569 -78.4033 North 424 488 37,000  Level Miami Center
Sun 04:22:05 PM 29.7731 -78.3706 14° North 424 488 37,000  Level Jacksonville Center
Sun 04:23:05 PM 29.8789 -78.3536 North 434 499 37,000  Level Jacksonville Center
Sun 04:24:05 PM 30.0014 -78.3361 North 429 494 37,000  Level Jacksonville Center
Sun 04:25:04 PM 30.1106 -78.2947 18° North 429 494 37,000  Level Jacksonville Center
Sun 04:26:05 PM 30.2364 -78.2575 14° North 430 495 37,000  Level Jacksonville Center
Sun 04:27:04 PM 30.3519 -78.2206 15° North 430 495 37,000  Level Jacksonville Center
Sun 04:28:04 PM 30.4739 -78.1833 15° North 435 501 37,000  Level Jacksonville Center
Sun 04:29:05 PM 30.5953 -78.1411 17° North 434 499 37,000  Level Jacksonville Center
Sun 04:30:05 PM 30.7089 -78.1042 16° North 427 491 37,000  Level Jacksonville Center
Sun 04:31:04 PM 30.8283 -78.0642 16° North 434 499 37,000  Level Jacksonville Center
Sun 04:32:04 PM 30.9439 -78.0269 15° North 434 499 37,000  Level Jacksonville Center
Sun 04:33:05 PM 31.0569 -77.9822 19° North 429 494 37,000  Level Jacksonville Center
Sun 04:34:04 PM 31.1747 -77.9494 13° North 424 488 37,000  Level Jacksonville Center
Sun 04:35:05 PM 31.2897 -77.9044 18° North 429 494 37,000  Level Jacksonville Center
Sun 04:36:04 PM 31.4072 -77.8689 14° North 434 499 37,000  Level Jacksonville Center
Sun 04:37:05 PM 31.5228 -77.8311 16° North 434 499 37,000  Level Jacksonville Center
Sun 04:38:05 PM 31.6381 -77.7931 16° North 434 499 37,000  Level Jacksonville Center
Sun 04:39:04 PM 31.7533 -77.7550 16° North 428 493 37,000  Level Jacksonville Center
Sun 04:40:04 PM 31.8708 -77.7167 15° North 428 493 37,000  Level Jacksonville Center
Sun 04:41:04 PM 31.9903 -77.6756 16° North 438 504 37,000  Level Jacksonville Center
Sun 04:42:05 PM 32.1050 -77.6764 360° North 415 478 37,000  Level Jacksonville Center
Sun 04:43:05 PM 32.2222 -77.6844 357° North 415 478 37,000  Level Jacksonville Center
Sun 04:44:05 PM 32.3372 -77.6878 359° North 415 478 37,000  Level Jacksonville Center
Sun 04:45:05 PM 32.4542 -77.6933 358° North 420 483 37,000  Level Jacksonville Center
Sun 04:46:05 PM 32.5714 -77.6964 359° North 420 483 37,000  Level Jacksonville Center
Sun 04:47:05 PM 32.6844 -77.7047 356° North 420 483 37,000  Level Jacksonville Center
Sun 04:48:05 PM 32.8031 -77.7028 North 425 489 37,000  Level Jacksonville Center
Sun 04:49:05 PM 32.9183 -77.7086 358° North 425 489 37,000  Level Jacksonville Center
Sun 04:50:05 PM 33.0353 -77.7142 358° North 425 489 37,000  Level Jacksonville Center
Sun 04:52:25 PM 33.2894 -77.7181 359° North 420 483 37,000  Level Washington Center
Sun 04:53:22 PM 33.4083 -77.7186 360° North 420 483 37,000  Level Washington Center
Sun 04:54:23 PM 33.5228 -77.7239 358° North 420 483 37,000  Level Washington Center
Sun 04:55:23 PM 33.6397 -77.7269 359° North 420 483 37,000  Level Washington Center
Sun 04:56:24 PM 33.7542 -77.7297 359° North 420 483 37,000  Level Washington Center
Sun 04:57:23 PM 33.8711 -77.7303 360° North 420 483 37,000  Level Washington Center
Sun 04:58:23 PM 33.9942 -77.7286 North 425 489 37,000  Level Washington Center
Sun 04:59:24 PM 34.1192 -77.7392 356° North 420 483 37,000  Level Washington Center
Sun 05:00:25 PM 34.2381 -77.7425 359° North 415 478 37,000  Level Washington Center
Sun 05:01:23 PM 34.3589 -77.7481 358° North 421 484 37,000  Level Washington Center
Sun 05:02:24 PM 34.4736 -77.7511 359° North 421 484 37,000  Level Washington Center
Sun 05:03:24 PM 34.5925 -77.7542 359° North 421 484 37,000  Level Washington Center
Sun 05:04:25 PM 34.7072 -77.7572 359° North 421 484 37,000  Level Washington Center
Sun 05:05:22 PM 34.8011 -77.7597 359° North 421 484 37,000  Level Washington Center
Sun 05:06:25 PM 34.9389 -77.7608 360° North 416 479 37,000  Level Washington Center
Sun 05:07:23 PM 35.0556 -77.7639 359° North 416 479 37,000  Level Washington Center
Sun 05:08:24 PM 35.1744 -77.7647 360° North 421 484 37,000  Level Washington Center
Sun 05:09:24 PM 35.2956 -77.7678 359° North 421 484 37,000  Level Washington Center
Sun 05:10:25 PM 35.4122 -77.7711 359° North 421 484 37,000  Level Washington Center
Sun 05:11:25 PM 35.5311 -77.7742 359° North 421 484 37,000  Level Washington Center
Sun 05:12:23 PM 35.6519 -77.7775 359° North 421 484 37,000  Level Washington Center
Sun 05:13:24 PM 35.7689 -77.7808 359° North 421 484 37,000  Level Washington Center
Sun 05:14:25 PM 35.8897 -77.7842 359° North 421 484 37,000  Level Washington Center
Sun 05:15:23 PM 36.0086 -77.7900 358° North 421 484 37,000  Level Washington Center
Sun 05:16:24 PM 36.1297 -77.7933 359° North 421 484 37,000  Level Washington Center
Sun 05:17:23 PM 36.2486 -77.7942 360° North 421 484 37,000  Level Washington Center
Sun 05:18:24 PM 36.3672 -77.8000 358° North 421 484 37,000  Level Washington Center
Sun 05:19:25 PM 36.4819 -77.8033 359° North 416 479 37,000  Level Washington Center
Sun 05:20:23 PM 36.6050 -77.8067 359° North 422 486 37,000  Level Washington Center
Sun 05:21:23 PM 36.7239 -77.8100 359° North 422 486 37,000  Level Washington Center
Sun 05:22:23 PM 36.8447 -77.8136 359° North 422 486 37,000  Level Washington Center
Sun 05:23:24 PM 36.9683 -77.7886 North 436 502 37,000  Level Washington Center
Sun 05:24:24 PM 37.0908 -77.7139 26° Northeast 441 507 37,000  Level Washington Center
Sun 05:25:25 PM 37.2108 -77.6442 25° Northeast 456 525 37,000  Level Washington Center
Sun 05:26:25 PM 37.3353 -77.5717 25° Northeast 472 543 37,000  Level Washington Center
Sun 05:27:23 PM 37.4572 -77.4992 25° Northeast 477 549 37,000 -153 Level Washington Center
Sun 05:28:23 PM 37.5753 -77.4286 25° Northeast 477 549 36,700 -496 Descending Washington Center
Sun 05:29:24 PM 37.6972 -77.3556 25° Northeast 472 543 36,000 -347 Descending Washington Center
Sun 05:30:24 PM 37.8172 -77.2847 25° Northeast 472 543 36,000  Level Washington Center
Sun 05:31:25 PM 37.9392 -77.2083 26° Northeast 472 543 36,000  Level Washington Center
Sun 05:32:23 PM 38.0531 -77.1158 33° Northeast 478 550 36,000  Level Washington Center
Sun 05:33:23 PM 38.1708 -77.0233 32° Northeast 490 564 36,000  Level Washington Center
Sun 05:34:24 PM 38.2847 -76.9328 32° Northeast 490 564 36,000 -492 Level Washington Center
Sun 05:35:25 PM 38.3961 -76.8422 32° Northeast 478 550 35,000 -1,361 Descending Washington Center
Sun 05:36:23 PM 38.5117 -76.7511 32° Northeast 478 550 33,300 -1,700 Descending Washington Center
Sun 05:37:25 PM 38.6250 -76.6572 33° Northeast 483 556 31,600 -1,613 Descending Washington Center
Sun 05:38:22 PM 38.7406 -76.5658 32° Northeast 478 550 30,100 -1,513 Descending Washington Center
Sun 05:39:24 PM 38.8497 -76.4792 32° Northeast 473 544 28,600 -1,610 Descending Washington Center
Sun 05:40:25 PM 38.9628 -76.3897 32° Northeast 473 544 26,800 -1,815 Descending Washington Center
Sun 05:41:23 PM 39.0739 -76.2947 34° Northeast 478 550 25,000 -1,412 Descending Washington Center
Sun 05:42:24 PM 39.1764 -76.1994 36° Northeast 471 542 24,000 -1,391 Descending Washington Center
Sun 05:45:03 PM 39.4500 -75.9333 37° Northeast 436 502 19,900 -1,682 Descending Philadelphia TRACON
Sun 05:45:58 PM 39.5333 -75.8500 38° Northeast 424 488 18,000 -2,035 Descending Philadelphia TRACON
Sun 05:46:58 PM 39.6167 -75.7667 38° Northeast 413 475 16,000 -2,050 Descending Philadelphia TRACON
Sun 05:47:58 PM 39.7167 -75.6833 33° Northeast 406 467 13,900 -1,500 Descending Philadelphia TRACON
Sun 05:48:58 PM 39.8000 -75.5833 43° Northeast 399 459 13,000 -432 Descending Philadelphia TRACON
Sun 05:50:03 PM 39.9000 -75.5000 33° Northeast 414 476 13,000 50 Level Philadelphia TRACON
Sun 05:50:58 PM 40.0000 -75.4167 33° Northeast 428 493 13,100 52 Climbing Philadelphia TRACON
Sun 05:51:58 PM 40.0833 -75.3333 37° Northeast 417 480 13,100 -350 Level Philadelphia TRACON
Sun 05:52:58 PM 40.1833 -75.2500 32° Northeast 410 472 12,400 -1,200 Descending Philadelphia TRACON
Sun 05:53:58 PM 40.2667 -75.1667 37° Northeast 368 423 10,700 -1,612 Descending Philadelphia TRACON
Sun 05:56:19 PM 40.4167 -74.9667 45° Northeast 316 364 7,000 -1,463 Descending New York TRACON
Sun 05:57:19 PM 40.4833 -74.9000 37° Northeast 310 357 5,800 -1,250 Descending New York TRACON
Sun 05:58:19 PM 40.5500 -74.8333 37° Northeast 308 354 4,500 -850 Descending New York TRACON
Sun 05:59:19 PM 40.6167 -74.7833 30° Northeast 304 350 4,100 -200 Descending New York TRACON
Sun 06:00:19 PM 40.7000 -74.7500 17° North 302 348 4,100  Level New York TRACON
Sun 06:01:19 PM 40.7833 -74.7000 24° Northeast 298 343 4,100  Level New York TRACON
Sun 06:02:19 PM 40.8500 -74.6500 30° Northeast 298 343 4,100 -100 Level New York TRACON
Sun 06:03:19 PM 40.9167 -74.5833 37° Northeast 300 345 3,900 -500 Descending New York TRACON
Sun 06:04:19 PM 40.9833 -74.5167 37° Northeast 284 327 3,100 -400 Descending New York TRACON
Sun 06:05:19 PM 41.0333 -74.4500 45° Northeast 280 322 3,100  Level New York TRACON
Sun 06:06:19 PM 41.0833 -74.3667 51° Northeast 260 299 3,100  Level New York TRACON
Sun 06:07:25 PM 41.1167 -74.3000 56° Northeast 228 262 3,100  Level New York TRACON
Sun 06:08:19 PM 41.1333 -74.2333 72° East 217 250 3,100  Level New York TRACON
Sun 06:09:25 PM 41.1167 -74.1500 105° East 211 243 3,100  Level New York TRACON
Sun 06:10:19 PM 41.0833 -74.1000 131° Southeast 194 223 3,100 -350 Level New York TRACON
Sun 06:11:25 PM 41.0500 -74.0500 131° Southeast 170 196 2,400 -500 Descending New York TRACON
Sun 06:12:19 PM 41.0167 -74.0500 180° South 148 170 2,100 -158 Descending New York TRACON
Sun 06:13:19 PM 40.9667 -74.0500 180° South 146 168 2,100 -200 Level New York TRACON
Sun 06:14:19 PM 40.9333 -74.0500 180° South 141 162 1,700 -550 Descending New York TRACON
Sun 06:15:19 PM 40.9000 -74.0500 180° South 121 139 1,000 -700 Descending New York TRACON

Login

Don't have an account? Register now (free) for customized features, flight alerts, and more!